Latest Weather Observations for High Range (Wanganderry)

IDN60801

Issued at 8:40 pm EDT Saturday 31 January 2015 (issued every 30 minutes, with the page automatically refreshed every 10 minutes)

About weather observations | Map of weather stations | Latest weather observations for NSW | Other Formats
Station Details ID: 068262 Name: HIGH RANGE AWS (WANGANDERRY) Lat: -34.33 Lon: 150.27 Height: 813.6 m
Data from the previous 72 hours. | See also: Recent months for locations in New South Wales
Date/Time
EDT
Temp
°C
App
Temp
°C
Dew
Point
Rel
Hum
%
Delta-T
°C
Wind Press
QNH
hPa
Press
MSL
hPa
Rain
since 9 am
mm
Dir
 
Spd
km/h
Gust
km/h
Spd
kts
Gust
kts
31/08:30pm 14.1 11.6 10.9 81 1.8 NE 15 19 8 10 1010.3 1006.2 0.0
31/08:00pm 14.5 12.0 11.1 80 1.9 NE 15 19 8 10 1009.8 1005.7 0.0
31/07:30pm 15.3 13.3 11.5 78 2.1 NE 13 19 7 10 1009.6 1005.4 0.0
31/07:00pm 15.8 13.8 11.6 76 2.4 NE 13 15 7 8 1009.3 1005.1 0.0
31/06:30pm 16.2 13.9 11.8 75 2.5 NE 15 19 8 10 1008.8 1004.7 0.0
31/06:00pm 16.5 14.1 11.4 72 2.9 NE 15 22 8 12 1008.5 1004.3 0.0
31/05:30pm 17.1 15.4 11.2 68 3.3 ENE 11 17 6 9 1008.4 1004.2 0.0
31/05:00pm 20.1 18.5 10.2 53 5.6 WSW 9 15 5 8 1008.4 1004.2 0.0
31/04:30pm 19.7 16.7 9.3 51 5.7 WSW 15 20 8 11 1008.5 1004.3 0.0
31/04:00pm 20.0 16.3 9.6 51 5.8 WSW 19 30 10 16 1008.4 1004.2 0.0
31/03:30pm 20.7 18.0 10.5 52 5.8 WSW 15 26 8 14 1008.3 1004.1 0.0
31/03:00pm 20.0 18.3 9.9 52 5.6 WSW 9 19 5 10 1008.2 1004.0 0.0
31/02:30pm 20.4 18.3 9.6 50 6.0 WSW 11 19 6 10 1008.0 1003.8 0.0
31/02:00pm 19.7 17.3 8.7 49 6.0 WNW 11 17 6 9 1008.2 1004.0 0.0
31/01:30pm 19.8 17.2 9.4 51 5.8 WNW 13 22 7 12 1008.4 1004.2 0.0
31/01:00pm 19.4 18.1 10.1 55 5.2 SW 7 15 4 8 1008.8 1004.7 0.0
31/12:30pm 19.0 16.9 9.8 55 5.1 WNW 11 24 6 13 1009.1 1004.9 0.0
31/12:00pm 18.2 16.8 11.0 63 4.1 NW 9 17 5 9 1009.3 1005.1 0.0
31/11:30am 17.5 14.8 8.9 57 4.7 W 13 19 7 10 1009.5 1005.3 0.0
31/11:00am 17.4 15.9 9.3 59 4.4 NNW 7 15 4 8 1009.9 1005.8 0.0
31/10:30am 17.3 15.5 9.5 60 4.3 N 9 15 5 8 1010.0 1005.9 0.0
31/10:00am 16.2 14.1 8.2 59 4.2 N 9 15 5 8 1009.9 1005.8 0.0
31/09:30am 16.0 13.5 8.0 59 4.2 N 11 15 6 8 1009.8 1005.7 0.0
31/09:00am 15.5 12.8 7.5 59 4.2 N 11 15 6 8 1009.8 1005.7 0.0
31/08:30am 15.1 12.8 7.6 61 3.9 N 9 11 5 6 1009.6 1005.4 0.0
31/08:00am 14.1 12.2 7.4 64 3.4 NNW 7 9 4 5 1009.6 1005.4 0.0
31/07:30am 13.0 10.5 6.6 65 3.2 NW 9 11 5 6 1009.4 1005.2 0.0
31/07:00am 11.5 8.7 6.8 73 2.3 WNW 11 13 6 7 1009.1 1004.9 0.0
31/06:30am 10.2 7.3 6.7 79 1.7 WNW 11 11 6 6 1008.9 1004.8 0.0
31/06:00am 9.7 6.8 6.6 81 1.5 W 11 13 6 7 1008.7 1004.6 0.0
31/05:30am 10.0 6.7 6.3 78 1.8 WSW 13 17 7 9 1008.5 1004.3 0.0
31/05:00am 10.1 6.4 6.1 76 1.9 SW 15 17 8 9 1008.3 1004.1 0.0
31/04:30am 10.3 6.7 6.6 78 1.8 SW 15 17 8 9 1008.3 1004.1 0.0
31/04:00am 10.7 6.7 6.8 77 1.9 SW 17 19 9 10 1008.4 1004.2 0.0
31/03:30am 10.8 6.9 6.9 77 1.9 SW 17 19 9 10 1008.5 1004.3 0.0
31/03:00am 11.3 7.4 7.2 76 2.1 WSW 17 19 9 10 1008.7 1004.6 0.0
31/02:30am 10.9 7.4 7.0 77 1.9 WSW 15 17 8 9 1008.9 1004.8 0.0
31/02:00am 11.1 7.6 7.0 76 2.1 SW 15 17 8 9 1008.9 1004.8 0.0
31/01:30am 10.8 7.6 6.7 76 2.0 SW 13 13 7 7 1009.3 1005.1 0.0
31/01:00am 11.3 7.7 6.8 74 2.2 SW 15 19 8 10 1009.4 1005.2 0.0
31/12:30am 11.5 7.2 7.0 74 2.3 SW 19 22 10 12 1009.6 1005.4 0.0
31/12:00am 12.3 7.5 7.4 72 2.5 SSW 22 30 12 16 1009.8 1005.7 0.0
 
Date/Time
EDT
Temp
°C
App
Temp
°C
Dew
Point
Rel
Hum
%
Delta-T
°C
Wind Press
QNH
hPa
Press
MSL
hPa
Rain
since 9 am
mm
Dir
 
Spd
km/h
Gust
km/h
Spd
kts
Gust
kts
30/11:30pm 12.7 7.6 7.6 71 2.6 SSW 24 28 13 15 1009.7 1005.6 0.0
30/11:00pm 13.2 9.0 8.1 71 2.6 S 20 22 11 12 1009.8 1005.7 0.0
30/10:30pm 13.7 9.5 8.1 69 2.9 SSW 20 24 11 13 1010.0 1005.9 0.0
30/10:00pm 13.9 9.7 8.1 68 3.0 S 20 26 11 14 1009.9 1005.8 0.0
30/09:30pm 13.9 9.2 7.9 67 3.1 SSW 22 26 12 14 1009.7 1005.6 0.0
30/09:00pm 13.9 9.9 8.1 68 3.0 SSW 19 20 10 11 1009.5 1005.3 0.0
30/08:30pm 14.4 10.4 8.4 67 3.1 SSW 19 20 10 11 1009.3 1005.1 0.0
30/08:00pm 15.2 11.0 8.2 63 3.7 SSW 20 26 11 14 1009.1 1004.9 0.0
30/07:30pm 15.4 11.4 8.4 63 3.7 SSW 19 24 10 13 1008.8 1004.7 0.0
30/07:00pm 16.4 12.2 8.1 58 4.4 SSW 20 26 11 14 1008.4 1004.2 0.0
30/06:30pm 15.9 11.1 7.4 57 4.4 SSW 22 30 12 16 1008.2 1004.0 0.0
30/06:00pm 17.7 12.9 7.2 50 5.5 SSW 22 28 12 15 1008.1 1003.9 0.0
30/05:30pm 18.9 13.8 7.7 48 6.0 SSW 24 33 13 18 1008.0 1003.8 0.0
30/05:00pm 19.7 14.9 8.7 49 6.0 SSW 24 35 13 19 1007.9 1003.7 0.0
30/04:30pm 18.0 12.1 5.9 45 6.2 WSW 26 39 14 21 1008.1 1003.9 0.0
30/04:00pm 18.2 12.4 7.9 51 5.5 SW 28 39 15 21 1008.3 1004.1 0.0
30/03:30pm 17.5 10.7 6.7 49 5.6 WSW 32 46 17 25 1008.4 1004.2 0.0
30/03:00pm 19.0 12.6 7.1 46 6.3 SW 30 43 16 23 1008.3 1004.1 0.0
30/02:30pm 17.8 11.7 6.7 48 5.8 SW 28 41 15 22 1008.6 1004.5 0.0
30/02:00pm 18.3 12.6 8.3 52 5.4 SW 28 41 15 22 1008.8 1004.7 0.0
30/01:30pm 18.3 11.8 8.0 51 5.5 SW 32 43 17 23 1009.2 1005.0 0.0
30/01:22pm 18.1 12.2 7.5 50 5.6 WSW 28 46 15 25 1009.3 1005.1 0.0
30/01:00pm 17.7 12.2 9.1 57 4.7 WSW 28 39 15 21 1009.4 1005.2 0.0
30/12:30pm 16.9 11.7 8.8 59 4.3 SW 26 35 14 19 1009.7 1005.6 0.0
30/12:00pm 15.3 10.2 7.8 61 3.9 SW 24 33 13 18 1010.1 1006.0 0.0
30/11:30am 14.9 10.8 7.9 63 3.6 WSW 19 24 10 13 1010.7 1006.5 0.0
30/11:00am 14.8 9.0 7.8 63 3.6 SW 28 37 15 20 1010.9 1006.8 0.0
30/10:30am 14.2 8.0 7.7 65 3.4 SW 30 39 16 21 1010.9 1006.8 0.0
30/10:00am 13.6 8.1 7.6 67 3.1 SW 26 35 14 19 1010.8 1006.7 0.0
30/09:30am 12.3 6.8 7.6 73 2.4 SW 26 35 14 19 1011.0 1006.9 0.0
30/09:00am 11.4 5.8 7.1 75 2.2 SW 26 32 14 17 1011.0 1006.9 3.4
30/08:30am 10.4 3.9 6.4 76 2.0 SW 30 39 16 21 1010.7 1006.5 3.4
30/08:00am 9.6 3.4 6.1 79 1.7 SW 28 33 15 18 1010.8 1006.7 3.4
30/07:30am 8.9 2.6 5.8 81 1.5 WSW 28 33 15 18 1010.6 1006.4 3.4
30/07:00am 8.0 2.1 5.6 85 1.1 SW 26 32 14 17 1010.5 1006.3 3.4
30/06:30am 7.3 1.3 5.1 86 1.0 WSW 26 30 14 16 1010.2 1006.1 3.4
30/06:00am 7.5 1.5 5.3 86 1.0 WSW 26 32 14 17 1010.0 1005.9 3.4
30/05:30am 7.5 1.5 5.3 86 1.0 SW 26 28 14 15 1010.1 1006.0 3.4
30/05:00am 7.5 1.9 5.3 86 1.0 SW 24 30 13 16 1010.1 1006.0 3.4
30/04:30am 7.4 1.4 5.4 87 0.9 SW 26 28 14 15 1010.2 1006.1 3.2
30/04:00am 7.9 1.6 5.9 87 1.0 SW 28 33 15 18 1010.5 1006.3 3.2
30/03:30am 8.1 1.9 6.1 87 1.0 SW 28 35 15 19 1010.8 1006.7 3.2
30/03:00am 8.1 1.6 6.4 89 0.8 SW 30 35 16 19 1010.9 1006.8 3.2
30/02:30am 8.4 1.6 6.9 90 0.7 SW 32 37 17 20 1011.3 1007.2 3.2
30/02:00am 8.6 1.9 7.5 93 0.5 SW 32 37 17 20 1011.5 1007.4 3.2
30/01:30am 8.8 2.6 7.7 93 0.5 SW 30 35 16 19 1011.9 1007.7 3.2
30/01:00am 9.1 3.0 8.2 94 0.5 SW 30 33 16 18 1012.1 1008.0 3.2
30/12:30am 9.5 3.9 8.6 94 0.5 SSW 28 32 15 17 1012.4 1008.3 3.2
30/12:00am 10.1 4.6 9.2 94 0.5 SSW 28 33 15 18 1012.7 1008.6 3.2
 
Date/Time
EDT
Temp
°C
App
Temp
°C
Dew
Point
Rel
Hum
%
Delta-T
°C
Wind Press
QNH
hPa
Press
MSL
hPa
Rain
since 9 am
mm
Dir
 
Spd
km/h
Gust
km/h
Spd
kts
Gust
kts
29/11:30pm 9.9 6.0 9.3 96 0.3 SW 20 24 11 13 1013.2 1009.1 3.2
29/11:00pm 9.9 6.2 9.4 97 0.3 SW 19 20 10 11 1013.4 1009.3 3.2
29/10:30pm 9.7 5.9 9.1 96 0.3 SW 19 20 10 11 1013.6 1009.5 3.2
29/10:00pm 9.5 6.0 8.9 96 0.3 SSW 17 20 9 11 1013.8 1009.7 3.2
29/09:30pm 9.8 6.4 9.0 95 0.4 SSW 17 19 9 10 1013.7 1009.6 3.0
29/09:00pm 10.5 7.2 9.6 94 0.5 SSW 17 20 9 11 1013.7 1009.6 3.0
29/08:30pm 10.6 6.9 9.5 93 0.6 S 19 22 10 12 1013.6 1009.5 3.0
29/08:00pm 11.1 7.8 9.7 91 0.7 S 17 20 9 11 1013.1 1009.0 3.0
29/07:30pm 11.9 10.0 10.5 91 0.8 S 11 17 6 9 1012.8 1008.7 3.0
29/07:00pm 11.2 6.7 10.0 92 0.6 S 24 35 13 19 1012.9 1008.8 2.2
29/06:46pm 13.1 7.9 9.0 76 2.2 S 26 48 14 26 1012.6 1008.5 0.4
29/06:30pm 15.0 12.8 10.8 76 2.3 SSW 13 17 7 9 1012.4 1008.3 0.4
29/06:00pm 12.5 7.4 9.3 81 1.7 S 26 41 14 22 1012.2 1008.1 0.4
29/05:52pm 13.2 8.0 8.9 75 2.3 S 26 41 14 22 1012.2 1008.1 0.2
29/05:30pm 16.3 13.6 8.8 61 4.0 SSW 13 22 7 12 1012.1 1008.0 0.0
29/05:00pm 16.2 11.3 6.9 54 4.8 SSW 22 30 12 16 1012.3 1008.2 0.0
29/04:30pm 15.9 11.4 7.1 56 4.5 SW 20 35 11 19 1012.5 1008.4 0.0
29/04:00pm 15.8 10.1 8.5 62 3.9 S 28 37 15 20 1012.9 1008.8 0.0
29/03:30pm 15.9 10.2 6.9 55 4.6 S 26 35 14 19 1012.8 1008.7 0.0
29/03:00pm 16.5 12.5 8.2 58 4.4 S 19 30 10 16 1013.3 1009.2 0.0
29/02:30pm 15.2 9.9 6.7 57 4.3 S 24 33 13 18 1013.5 1009.4 0.0
29/02:00pm 15.2 8.2 6.2 55 4.5 SSW 32 39 17 21 1013.7 1009.6 0.0
29/01:30pm 16.9 10.8 8.3 57 4.6 SSW 30 43 16 23 1013.6 1009.5 0.0
29/01:00pm 16.1 9.5 7.6 57 4.4 SW 32 46 17 25 1013.8 1009.7 0.0
29/12:30pm 15.8 9.3 8.3 61 4.0 SSW 32 41 17 22 1014.0 1009.9 0.0
29/12:00pm 15.0 8.4 7.8 62 3.7 SSW 32 44 17 24 1014.1 1010.1 0.0
29/11:30am 14.4 7.7 7.5 63 3.6 SSW 32 39 17 21 1014.4 1010.3 0.0
29/11:00am 14.2 8.4 7.9 66 3.3 SSW 28 37 15 20 1014.6 1010.5 0.0
29/10:30am 13.7 6.9 7.5 66 3.2 SSW 33 44 18 24 1014.7 1010.6 0.0
29/10:00am 13.1 5.9 7.5 69 2.9 SSW 35 46 19 25 1014.7 1010.6 0.0
29/09:30am 12.1 4.7 6.8 70 2.7 SSW 35 43 19 23 1014.8 1010.7 0.0
29/09:00am 11.5 5.1 6.8 73 2.3 SSW 30 39 16 21 1014.7 1010.6 1.4
29/08:30am 10.8 4.8 6.9 77 1.9 SSW 28 43 15 23 1014.8 1010.7 1.4
29/08:00am 9.9 4.2 6.6 80 1.6 SW 26 32 14 17 1014.7 1010.6 1.4
29/07:30am 9.2 3.8 6.5 83 1.3 SW 24 32 13 17 1014.5 1010.4 1.4
29/07:00am 8.5 4.0 6.8 89 0.8 SW 20 28 11 15 1014.4 1010.3 1.4
29/06:30am 8.1 2.8 7.0 93 0.5 SW 24 28 13 15 1014.0 1009.9 1.4
29/06:00am 7.9 1.4 6.7 92 0.6 SSW 30 35 16 19 1013.9 1009.8 1.4
29/05:30am 8.0 1.6 7.1 94 0.4 SSW 30 35 16 19 1013.6 1009.5 1.4
29/05:00am 8.5 1.2 7.3 92 0.6 SSW 35 41 19 22 1013.4 1009.3 1.4
29/04:30am 8.8 1.9 7.4 91 0.7 SSW 33 39 18 21 1013.4 1009.3 1.4
29/04:00am 9.3 2.7 7.7 90 0.8 SSW 32 43 17 23 1013.8 1009.7 1.4
29/03:30am 9.6 4.2 8.0 90 0.8 SSW 26 35 14 19 1014.1 1010.1 1.4
29/03:00am 9.8 3.8 8.6 92 0.6 SSW 30 37 16 20 1014.1 1010.1 1.4
29/02:30am 9.8 3.4 8.7 93 0.6 S 32 39 17 21 1014.4 1010.3 1.4
29/02:00am 9.8 3.8 8.7 93 0.6 S 30 39 16 21 1014.6 1010.5 1.4
29/01:30am 10.2 4.7 9.1 93 0.6 S 28 35 15 19 1015.1 1011.0 1.4
29/01:00am 10.3 4.5 9.4 94 0.5 S 30 37 16 20 1015.3 1011.3 1.4
29/12:30am 10.0 4.4 8.9 93 0.6 SSW 28 37 15 20 1015.4 1011.4 1.4
29/12:00am 10.4 5.4 9.5 94 0.5 S 26 33 14 18 1015.5 1011.5 1.4
 
Date/Time
EDT
Temp
°C
App
Temp
°C
Dew
Point
Rel
Hum
%
Delta-T
°C
Wind Press
QNH
hPa
Press
MSL
hPa
Rain
since 9 am
mm
Dir
 
Spd
km/h
Gust
km/h
Spd
kts
Gust
kts
28/11:30pm 10.1 4.7 9.5 96 0.3 SSW 28 39 15 21 1015.7 1011.6 1.4
28/11:00pm 9.9 4.8 9.3 96 0.3 SSW 26 32 14 17 1015.8 1011.7 1.4
28/10:30pm 10.1 5.8 9.3 95 0.4 SSW 22 28 12 15 1016.1 1012.0 1.4
28/10:00pm 10.6 5.7 9.8 95 0.4 S 26 33 14 18 1016.3 1012.3 1.4
28/09:30pm 10.4 6.5 9.6 95 0.4 SSW 20 26 11 14 1016.3 1012.3 1.4
28/09:00pm 10.8 5.8 9.7 93 0.6 S 26 32 14 17 1016.3 1012.3 1.4

Other Formats:

Comma delimited format used in spreadsheet applications
http://www.bom.gov.au/fwo/IDN60801/IDN60801.99742.axf

JavaScript Object Notation format (JSON) in row-major order
http://www.bom.gov.au/fwo/IDN60801/IDN60801.99742.json